»·PEaware :: N8201W KBFL-KMHV

N8201W :: KBFL-KMHV

FLIGHT INFORMATION

Flight Status: Arrived
Operator: Privately registered:
United States
More flights under this callsign
Pilot: Anonymous 26129 (26129)
Aircraft: PIPER PA-28 CHEROKEE ARCHER
(PA28)
More flights by this aircraft type
Origin: KBFL Meadows
United States
Destination: KMHV Mojave
United States
More flights between these airports :: More routes between these airports
Route:
File this flight plan on PilotEdge
Remarks:
Altitude:
(Current/Filed)
7,500ft
Speed:
(Current/Filed)
115kts
Departed: 28-Jul-20 03:34 PM
Arrived: 28-Jul-20 04:11 PM
Distance/Time
Traveled:
50nm/0:37
Distance/Time
To Go:
Arrived

Flight Plot

Page will automatically refresh every two minutes.


Map Options




Map Legend


Flown Route
Filed Route
Departure Airport
Arrival Airport
Navaid (VOR, NDB)
Fix

Horizontal Profiles

Position Reports

Time Latitude Longitude Heading Altitude Ground
Speed
28-Jul-20 15:11 35.429518 -119.045355 45 509ft 0kts
28-Jul-20 15:12 35.429518 -119.045355 45 509ft 0kts
28-Jul-20 15:13 35.429518 -119.045355 45 509ft 0kts
28-Jul-20 15:14 35.429518 -119.045354 45 509ft 0kts
28-Jul-20 15:15 35.429572 -119.045391 270 509ft 0kts
28-Jul-20 15:16 35.429572 -119.045392 270 509ft 0kts
28-Jul-20 15:17 35.429572 -119.045393 270 509ft 0kts
28-Jul-20 15:18 35.429572 -119.045394 270 509ft 0kts
28-Jul-20 15:19 35.429572 -119.045396 270 509ft 0kts
28-Jul-20 15:20 35.429572 -119.045397 270 509ft 0kts
28-Jul-20 15:21 35.429568 -119.045428 253 509ft 0kts
28-Jul-20 15:22 35.429568 -119.045428 253 509ft 0kts
28-Jul-20 15:23 35.429567 -119.045430 252 509ft 0kts
28-Jul-20 15:24 35.429555 -119.045460 239 509ft 0kts
28-Jul-20 15:25 35.429553 -119.045465 236 509ft 0kts
28-Jul-20 15:26 35.429551 -119.045468 236 509ft 0kts
28-Jul-20 15:27 35.428831 -119.045512 137 509ft 15kts
28-Jul-20 15:28 35.426528 -119.043156 193 509ft 2kts
28-Jul-20 15:29 35.424953 -119.043302 263 509ft 7kts
28-Jul-20 15:30 35.424905 -119.046168 267 509ft 8kts
28-Jul-20 15:31 35.425168 -119.046799 39 509ft 0kts
28-Jul-20 15:32 35.425169 -119.046797 39 509ft 0kts
28-Jul-20 15:33 35.433131 -119.052515 337 530ft 98kts
28-Jul-20 15:34 35.456689 -119.041834 24 1284ft 89kts
28-Jul-20 15:35 35.482262 -119.036746 17 1932ft 93kts
28-Jul-20 15:36 35.491603 -119.035106 12 2200ft 0kts
28-Jul-20 15:37 35.494879 -119.013412 119 2746ft 92kts
28-Jul-20 15:38 35.484930 -118.990634 120 3404ft 87kts
28-Jul-20 15:39 35.473782 -118.966661 112 3965ft 89kts
28-Jul-20 15:40 35.461733 -118.940155 121 4486ft 89kts
28-Jul-20 15:41 35.452428 -118.917694 122 4991ft 89kts
28-Jul-20 15:42 35.437420 -118.893288 124 5538ft 90kts
28-Jul-20 15:43 35.419935 -118.871243 131 6038ft 90kts
28-Jul-20 15:44 35.403519 -118.847676 133 6480ft 91kts
28-Jul-20 15:45 35.385937 -118.825113 140 6849ft 92kts
28-Jul-20 15:46 35.367480 -118.803401 126 7173ft 92kts
28-Jul-20 15:47 35.353277 -118.777127 127 7455ft 93kts
28-Jul-20 15:48 35.338218 -118.750758 127 7667ft 95kts
28-Jul-20 15:49 35.320539 -118.724030 128 7706ft 103kts
28-Jul-20 15:50 35.302885 -118.695933 122 7746ft 103kts
28-Jul-20 15:51 35.287941 -118.664112 118 7611ft 114kts
28-Jul-20 15:52 35.273086 -118.630305 119 7504ft 112kts
28-Jul-20 15:53 35.255847 -118.598746 124 7433ft 110kts
28-Jul-20 15:54 35.236725 -118.569830 127 7428ft 107kts
28-Jul-20 15:55 35.218048 -118.540808 129 7410ft 107kts
28-Jul-20 15:56 35.198222 -118.512977 131 7367ft 110kts
28-Jul-20 15:57 35.182348 -118.481654 116 7379ft 107kts
28-Jul-20 15:58 35.166287 -118.450653 120 7423ft 103kts
28-Jul-20 15:59 35.151615 -118.420079 120 7477ft 105kts
28-Jul-20 16:00 35.137142 -118.389507 124 7559ft 103kts
28-Jul-20 16:01 35.124897 -118.357286 111 7583ft 105kts
28-Jul-20 16:02 35.111990 -118.325370 122 7530ft 105kts
28-Jul-20 16:03 35.096888 -118.294423 114 7124ft 107kts
28-Jul-20 16:04 35.091865 -118.258280 92 6173ft 107kts
28-Jul-20 16:05 35.086678 -118.222896 100 5138ft 107kts
28-Jul-20 16:06 35.078162 -118.186925 92 3991ft 100kts
28-Jul-20 16:07 35.075857 -118.157105 94 3780ft 80kts
28-Jul-20 16:08 35.073098 -118.130070 92 3730ft 75kts
28-Jul-20 16:09 35.059556 -118.126706 258 3120ft 78kts
28-Jul-20 16:10 35.059190 -118.149050 267 2793ft 25kts
28-Jul-20 16:12 35.058259 -118.149557 139 2793ft 1kts
28-Jul-20 16:13 35.058257 -118.149555 139 2793ft 0kts
28-Jul-20 16:14 35.057458 -118.149072 270 2793ft 6kts

Navigation Log

Ident Type
Flight plan parsing failed, navigation log unavailable